Time,TemperatureF,DewpointF,PressureIn,WindDirection,WindDirectionDegrees,WindSpeedMPH,WindSpeedGustMPH,Humidity,HourlyPrecipIn,Conditions,Clouds,dailyrainin,SoftwareType,DateUTC
2013-04-28 00:01:00,60.0,23.0,30.07,North,0,0.0,0.0,24,0.00,,,0.00,,2013-04-28 06:01:00,
2013-04-28 00:12:00,60.0,23.0,30.07,North,0,0.0,0.0,24,0.00,,,0.00,,2013-04-28 06:12:00,
2013-04-28 00:21:00,59.0,25.0,30.07,North,0,0.0,0.0,27,0.00,,,0.00,,2013-04-28 06:21:00,
2013-04-28 00:32:00,58.0,25.0,30.07,North,0,0.0,0.0,28,0.00,,,0.00,,2013-04-28 06:32:00,
2013-04-28 00:42:00,58.0,25.0,30.07,North,0,0.0,0.0,28,0.00,,,0.00,,2013-04-28 06:42:00,
2013-04-28 00:51:00,59.0,23.0,30.07,North,0,0.0,0.0,25,0.00,,,0.00,,2013-04-28 06:51:00,
2013-04-28 01:01:00,58.0,28.0,30.07,SW,215,2.0,8.0,31,0.00,,,0.00,,2013-04-28 07:01:00,
2013-04-28 01:11:00,58.0,28.0,30.07,SW,215,2.0,8.0,31,0.00,,,0.00,,2013-04-28 07:11:00,
2013-04-28 01:21:00,59.0,29.0,30.07,WSW,243,1.0,5.0,32,0.00,,,0.00,,2013-04-28 07:21:00,
2013-04-28 01:31:00,57.0,29.0,30.06,NW,314,0.0,1.0,34,0.00,,,0.00,,2013-04-28 07:31:00,
2013-04-28 01:42:00,57.0,29.0,30.06,NW,314,0.0,1.0,34,0.00,,,0.00,,2013-04-28 07:42:00,
2013-04-28 01:52:00,57.0,28.0,30.06,NW,314,0.0,0.0,33,0.00,,,0.00,,2013-04-28 07:52:00,
2013-04-28 02:02:00,57.0,29.0,30.06,NW,314,0.0,0.0,34,0.00,,,0.00,,2013-04-28 08:02:00,
2013-04-28 02:11:00,57.0,29.0,30.06,NW,314,0.0,0.0,34,0.00,,,0.00,,2013-04-28 08:11:00,
2013-04-28 02:21:00,56.0,29.0,30.06,NW,314,0.0,0.0,35,0.00,,,0.00,,2013-04-28 08:21:00,
2013-04-28 02:32:00,56.0,29.0,30.06,NW,314,0.0,0.0,35,0.00,,,0.00,,2013-04-28 08:32:00,
2013-04-28 02:42:00,56.0,29.0,30.06,NW,314,0.0,0.0,35,0.00,,,0.00,,2013-04-28 08:42:00,
2013-04-28 02:52:00,55.0,27.0,30.05,NW,314,0.0,0.0,34,0.00,,,0.00,,2013-04-28 08:52:00,
2013-04-28 03:01:00,55.0,26.0,30.05,WNW,298,0.0,2.0,32,0.00,,,0.00,,2013-04-28 09:01:00,
2013-04-28 03:11:00,55.0,26.0,30.05,WNW,298,0.0,2.0,32,0.00,,,0.00,,2013-04-28 09:11:00,
2013-04-28 03:21:00,55.0,24.0,30.05,North,352,0.0,1.0,30,0.00,,,0.00,,2013-04-28 09:21:00,
2013-04-28 03:33:00,55.0,24.0,30.05,North,352,0.0,0.0,30,0.00,,,0.00,,2013-04-28 09:33:00,
2013-04-28 03:42:00,55.0,24.0,30.05,North,352,0.0,0.0,30,0.00,,,0.00,,2013-04-28 09:42:00,
2013-04-28 03:53:00,55.0,24.0,30.05,North,352,0.0,0.0,30,0.00,,,0.00,,2013-04-28 09:53:00,
2013-04-28 04:03:00,54.0,25.0,30.04,North,352,0.0,0.0,32,0.00,,,0.00,,2013-04-28 10:03:00,
2013-04-28 04:12:00,54.0,25.0,30.04,North,352,0.0,0.0,32,0.00,,,0.00,,2013-04-28 10:12:00,
2013-04-28 04:22:00,52.0,29.0,30.04,North,352,0.0,0.0,41,0.00,,,0.00,,2013-04-28 10:22:00,
2013-04-28 04:32:00,51.0,29.0,30.04,North,352,0.0,0.0,42,0.00,,,0.00,,2013-04-28 10:32:00,
2013-04-28 04:42:00,51.0,29.0,30.04,North,352,0.0,0.0,42,0.00,,,0.00,,2013-04-28 10:42:00,
2013-04-28 04:52:00,51.0,26.0,30.04,NNW,333,4.0,5.0,37,0.00,,,0.00,,2013-04-28 10:52:00,
2013-04-28 05:02:00,53.0,22.0,30.04,NW,321,0.0,3.0,30,0.00,,,0.00,,2013-04-28 11:02:00,
2013-04-28 05:11:00,53.0,22.0,30.04,NW,321,0.0,3.0,30,0.00,,,0.00,,2013-04-28 11:11:00,
2013-04-28 05:22:00,53.0,22.0,30.04,North,3,2.0,5.0,29,0.00,,,0.00,,2013-04-28 11:22:00,
2013-04-28 05:32:00,52.0,20.0,30.05,NNW,340,3.0,5.0,28,0.00,,,0.00,,2013-04-28 11:32:00,
2013-04-28 05:42:00,52.0,20.0,30.05,NNW,340,3.0,5.0,28,0.00,,,0.00,,2013-04-28 11:42:00,
2013-04-28 05:52:00,52.0,19.0,30.06,North,7,2.0,5.0,27,0.00,,,0.00,,2013-04-28 11:52:00,
2013-04-28 06:01:00,52.0,18.0,30.06,NW,323,1.0,4.0,26,0.00,,,0.00,,2013-04-28 12:01:00,
2013-04-28 06:11:00,52.0,18.0,30.06,NW,323,1.0,4.0,26,0.00,,,0.00,,2013-04-28 12:11:00,
2013-04-28 06:21:00,53.0,16.0,30.07,NNE,15,0.0,6.0,23,0.00,,,0.00,,2013-04-28 12:21:00,
2013-04-28 06:32:00,54.0,16.0,30.07,North,352,0.0,3.0,22,0.00,,,0.00,,2013-04-28 12:32:00,
2013-04-28 06:42:00,54.0,16.0,30.07,North,352,0.0,3.0,22,0.00,,,0.00,,2013-04-28 12:42:00,
2013-04-28 06:52:00,54.0,17.0,30.08,NE,52,0.0,2.0,23,0.00,,,0.00,,2013-04-28 12:52:00,
2013-04-28 07:02:00,54.0,19.0,30.09,NE,52,0.0,0.0,25,0.00,,,0.00,,2013-04-28 13:02:00,
2013-04-28 07:11:00,54.0,19.0,30.09,NE,52,0.0,0.0,25,0.00,,,0.00,,2013-04-28 13:11:00,
2013-04-28 07:21:00,53.0,22.0,30.09,NE,52,0.0,0.0,29,0.00,,,0.00,,2013-04-28 13:21:00,
2013-04-28 07:31:00,53.0,25.0,30.09,NE,52,0.0,0.0,33,0.00,,,0.00,,2013-04-28 13:31:00,
2013-04-28 07:42:00,53.0,25.0,30.09,NE,52,0.0,0.0,33,0.00,,,0.00,,2013-04-28 13:42:00,
2013-04-28 07:52:00,55.0,19.0,30.10,NNW,332,1.0,3.0,24,0.00,,,0.00,,2013-04-28 13:52:00,
2013-04-28 08:01:00,57.0,17.0,30.10,NNW,333,1.0,4.0,21,0.00,,,0.00,,2013-04-28 14:01:00,
2013-04-28 08:11:00,57.0,17.0,30.10,NNW,333,1.0,4.0,21,0.00,,,0.00,,2013-04-28 14:11:00,
2013-04-28 08:21:00,60.0,15.0,30.10,NNW,333,3.0,6.0,17,0.00,,,0.00,,2013-04-28 14:21:00,
2013-04-28 08:32:00,62.0,14.0,30.10,NNW,338,4.0,7.0,15,0.00,,,0.00,,2013-04-28 14:32:00,
2013-04-28 08:42:00,62.0,14.0,30.10,NNW,338,4.0,7.0,15,0.00,,,0.00,,2013-04-28 14:42:00,
2013-04-28 08:52:00,63.0,16.0,30.10,NW,305,3.0,6.0,16,0.00,,,0.00,,2013-04-28 14:52:00,
2013-04-28 09:01:00,65.0,16.0,30.10,NW,316,2.0,6.0,15,0.00,,,0.00,,2013-04-28 15:01:00,
2013-04-28 09:12:00,65.0,16.0,30.10,NW,316,2.0,6.0,15,0.00,,,0.00,,2013-04-28 15:12:00,
2013-04-28 09:21:00,67.0,16.0,30.10,NW,316,3.0,8.0,14,0.00,,,0.00,,2013-04-28 15:21:00,
2013-04-28 09:32:00,68.0,15.0,30.10,NNW,338,4.0,8.0,13,0.00,,,0.00,,2013-04-28 15:32:00,
2013-04-28 09:42:00,68.0,15.0,30.10,NNW,338,4.0,8.0,13,0.00,,,0.00,,2013-04-28 15:42:00,
2013-04-28 09:53:00,70.0,17.0,30.10,North,356,4.0,7.0,13,0.00,,,0.00,,2013-04-28 15:53:00,
2013-04-28 10:03:00,72.0,17.0,30.10,NW,321,4.0,6.0,12,0.00,,,0.00,,2013-04-28 16:03:00,
2013-04-28 10:13:00,72.0,17.0,30.10,NW,321,4.0,6.0,12,0.00,,,0.00,,2013-04-28 16:13:00,
2013-04-28 10:23:00,73.0,17.0,30.09,NW,318,2.0,6.0,12,0.00,,,0.00,,2013-04-28 16:23:00,
2013-04-28 10:33:00,75.0,19.0,30.09,WSW,249,2.0,4.0,12,0.00,,,0.00,,2013-04-28 16:33:00,
2013-04-28 10:42:00,75.0,19.0,30.09,WSW,249,2.0,4.0,12,0.00,,,0.00,,2013-04-28 16:42:00,
2013-04-28 10:52:00,77.0,22.0,30.09,SE,124,0.0,3.0,13,0.00,,,0.00,,2013-04-28 16:52:00,
2013-04-28 11:02:00,78.0,27.0,30.09,WSW,242,3.0,6.0,15,0.00,,,0.00,,2013-04-28 17:02:00,
2013-04-28 11:12:00,78.0,27.0,30.09,WSW,242,3.0,6.0,15,0.00,,,0.00,,2013-04-28 17:12:00,
2013-04-28 11:21:00,78.0,27.0,30.09,SW,217,4.0,7.0,15,0.00,,,0.00,,2013-04-28 17:21:00,
2013-04-28 11:32:00,79.0,24.0,30.08,SW,215,3.0,8.0,13,0.00,,,0.00,,2013-04-28 17:32:00,
2013-04-28 11:42:00,79.0,24.0,30.08,SW,215,3.0,8.0,13,0.00,,,0.00,,2013-04-28 17:42:00,
2013-04-28 11:51:00,79.0,26.0,30.08,WSW,257,2.0,7.0,14,0.00,,,0.00,,2013-04-28 17:51:00,
2013-04-28 12:02:00,80.0,25.0,30.07,South,176,4.0,7.0,13,0.00,,,0.00,,2013-04-28 18:02:00,
2013-04-28 12:12:00,80.0,25.0,30.07,South,176,4.0,7.0,13,0.00,,,0.00,,2013-04-28 18:12:00,
2013-04-28 12:22:00,82.0,22.0,30.07,North,1,1.0,6.0,11,0.00,,,0.00,,2013-04-28 18:22:00,
2013-04-28 12:32:00,83.0,21.0,30.06,South,173,1.0,7.0,10,0.00,,,0.00,,2013-04-28 18:32:00,
2013-04-28 12:42:00,83.0,21.0,30.06,South,173,1.0,7.0,10,0.00,,,0.00,,2013-04-28 18:42:00,
2013-04-28 12:52:00,84.0,16.0,30.06,East,80,3.0,8.0,8,0.00,,,0.00,,2013-04-28 18:52:00,
2013-04-28 13:02:00,84.0,16.0,30.05,SSE,156,4.0,7.0,8,0.00,,,0.00,,2013-04-28 19:02:00,
2013-04-28 13:11:00,84.0,16.0,30.05,SSE,156,4.0,7.0,8,0.00,,,0.00,,2013-04-28 19:11:00,
2013-04-28 13:21:00,84.0,16.0,30.04,SSE,155,2.0,8.0,8,0.00,,,0.00,,2013-04-28 19:21:00,
2013-04-28 13:31:00,85.0,11.0,30.03,SSE,165,2.0,8.0,6,0.00,,,0.00,,2013-04-28 19:31:00,
2013-04-28 13:41:00,85.0,11.0,30.03,SSE,165,2.0,8.0,6,0.00,,,0.00,,2013-04-28 19:41:00,
2013-04-28 13:52:00,85.0,7.0,30.03,ESE,121,3.0,9.0,5,0.00,,,0.00,,2013-04-28 19:52:00,
2013-04-28 14:02:00,86.0,2.0,30.02,NE,35,5.0,9.0,4,0.00,,,0.00,,2013-04-28 20:02:00,
2013-04-28 14:11:00,86.0,2.0,30.02,NE,35,5.0,9.0,4,0.00,,,0.00,,2013-04-28 20:11:00,
2013-04-28 14:22:00,86.0,2.0,30.01,ESE,103,5.0,8.0,4,0.00,,,0.00,,2013-04-28 20:22:00,
2013-04-28 14:32:00,87.0,3.0,30.01,East,83,4.0,10.0,4,0.00,,,0.00,,2013-04-28 20:32:00,
2013-04-28 14:42:00,87.0,3.0,30.01,East,83,4.0,10.0,4,0.00,,,0.00,,2013-04-28 20:42:00,
2013-04-28 14:51:00,86.0,2.0,30.00,ENE,63,0.0,6.0,4,0.00,,,0.00,,2013-04-28 20:51:00,
2013-04-28 15:01:00,84.0,6.0,29.99,NNE,31,3.0,10.0,5,0.00,,,0.00,,2013-04-28 21:01:00,
2013-04-28 15:11:00,84.0,6.0,29.99,NNE,31,3.0,10.0,5,0.00,,,0.00,,2013-04-28 21:11:00,
2013-04-28 15:22:00,86.0,2.0,29.98,ESE,108,2.0,10.0,4,0.00,,,0.00,,2013-04-28 21:22:00,
2013-04-28 15:32:00,86.0,2.0,29.98,ESE,117,6.0,11.0,4,0.00,,,0.00,,2013-04-28 21:32:00,
2013-04-28 15:42:00,86.0,2.0,29.98,ESE,117,6.0,11.0,4,0.00,,,0.00,,2013-04-28 21:42:00,
2013-04-28 15:52:00,86.0,-4.0,29.96,ESE,111,4.0,7.0,3,0.00,,,0.00,,2013-04-28 21:52:00,
2013-04-28 16:03:00,86.0,-4.0,29.96,SSW,212,5.0,10.0,3,0.00,,,0.00,,2013-04-28 22:03:00,
2013-04-28 16:12:00,86.0,-4.0,29.96,SSW,212,5.0,10.0,3,0.00,,,0.00,,2013-04-28 22:12:00,
2013-04-28 16:22:00,86.0,2.0,29.95,SE,124,0.0,9.0,4,0.00,,,0.00,,2013-04-28 22:22:00,
2013-04-28 16:33:00,87.0,-3.0,29.94,NW,312,2.0,8.0,3,0.00,,,0.00,,2013-04-28 22:33:00,
2013-04-28 16:42:00,87.0,-3.0,29.94,NW,312,2.0,8.0,3,0.00,,,0.00,,2013-04-28 22:42:00,
2013-04-28 16:52:00,87.0,-3.0,29.93,WNW,288,2.0,9.0,3,0.00,,,0.00,,2013-04-28 22:52:00,
2013-04-28 17:02:00,87.0,-3.0,29.93,West,263,7.0,10.0,3,0.00,,,0.00,,2013-04-28 23:02:00,
2013-04-28 17:12:00,87.0,-3.0,29.93,West,263,7.0,10.0,3,0.00,,,0.00,,2013-04-28 23:12:00,
2013-04-28 17:22:00,87.0,-3.0,29.93,WSW,245,0.0,12.0,3,0.00,,,0.00,,2013-04-28 23:22:00,
2013-04-28 17:32:00,88.0,-2.0,29.93,WNW,283,2.0,8.0,3,0.00,,,0.00,,2013-04-28 23:32:00,
2013-04-28 17:42:00,88.0,-2.0,29.93,WNW,283,2.0,8.0,3,0.00,,,0.00,,2013-04-28 23:42:00,
2013-04-28 17:51:00,88.0,-2.0,29.92,NNW,336,3.0,5.0,3,0.00,,,0.00,,2013-04-28 23:51:00,
2013-04-28 18:01:00,87.0,-3.0,29.92,WNW,287,4.0,10.0,3,0.00,,,0.00,,2013-04-29 00:01:00,
2013-04-28 18:11:00,87.0,-3.0,29.92,WNW,287,4.0,10.0,3,0.00,,,0.00,,2013-04-29 00:11:00,
2013-04-28 18:22:00,86.0,-4.0,29.92,WSW,257,6.0,10.0,3,0.00,,,0.00,,2013-04-29 00:22:00,
2013-04-28 18:32:00,85.0,-4.0,29.91,WNW,297,2.0,7.0,3,0.00,,,0.00,,2013-04-29 00:32:00,
2013-04-28 18:41:00,85.0,-4.0,29.91,WNW,297,2.0,7.0,3,0.00,,,0.00,,2013-04-29 00:41:00,
2013-04-28 18:52:00,85.0,2.0,29.91,NW,312,2.0,6.0,4,0.00,,,0.00,,2013-04-29 00:52:00,
2013-04-28 19:01:00,84.0,-5.0,29.91,WSW,239,0.0,3.0,3,0.00,,,0.00,,2013-04-29 01:01:00,
2013-04-28 19:12:00,84.0,1.0,29.91,South,190,1.0,3.0,4,0.00,,,0.00,,2013-04-29 01:12:00,
2013-04-28 19:21:00,84.0,1.0,29.91,South,190,1.0,3.0,4,0.00,,,0.00,,2013-04-29 01:21:00,
2013-04-28 19:32:00,83.0,0.0,29.91,WSW,245,2.0,4.0,4,0.00,,,0.00,,2013-04-29 01:32:00,
2013-04-28 19:42:00,83.0,0.0,29.91,WSW,245,2.0,4.0,4,0.00,,,0.00,,2013-04-29 01:42:00,
2013-04-28 19:52:00,83.0,5.0,29.91,SW,236,0.0,4.0,5,0.00,,,0.00,,2013-04-29 01:52:00,
2013-04-28 20:02:00,81.0,4.0,29.91,SW,236,0.0,0.0,5,0.00,,,0.00,,2013-04-29 02:02:00,
2013-04-28 20:11:00,81.0,4.0,29.91,SW,236,0.0,0.0,5,0.00,,,0.00,,2013-04-29 02:11:00,
2013-04-28 20:21:00,79.0,6.0,29.91,SW,236,0.0,0.0,6,0.00,,,0.00,,2013-04-29 02:21:00,
2013-04-28 20:32:00,77.0,8.0,29.91,SW,236,0.0,0.0,7,0.00,,,0.00,,2013-04-29 02:32:00,
2013-04-28 20:41:00,77.0,8.0,29.91,SW,236,0.0,0.0,7,0.00,,,0.00,,2013-04-29 02:41:00,
2013-04-28 20:51:00,75.0,12.0,29.91,SW,236,0.0,0.0,9,0.00,,,0.00,,2013-04-29 02:51:00,
2013-04-28 21:01:00,74.0,12.0,29.91,SW,236,0.0,0.0,9,0.00,,,0.00,,2013-04-29 03:01:00,
2013-04-28 21:12:00,74.0,12.0,29.91,SW,236,0.0,0.0,9,0.00,,,0.00,,2013-04-29 03:12:00,
2013-04-28 21:21:00,72.0,15.0,29.92,SW,236,0.0,0.0,11,0.00,,,0.00,,2013-04-29 03:21:00,
2013-04-28 21:33:00,71.0,18.0,29.92,SW,236,0.0,0.0,13,0.00,,,0.00,,2013-04-29 03:33:00,
2013-04-28 21:42:00,71.0,18.0,29.92,SW,236,0.0,0.0,13,0.00,,,0.00,,2013-04-29 03:42:00,
2013-04-28 21:52:00,70.0,17.0,29.93,SW,236,0.0,0.0,13,0.00,,,0.00,,2013-04-29 03:52:00,
2013-04-28 22:03:00,69.0,19.0,29.93,South,172,0.0,1.0,15,0.00,,,0.00,,2013-04-29 04:03:00,
2013-04-28 22:13:00,69.0,19.0,29.93,South,172,0.0,1.0,15,0.00,,,0.00,,2013-04-29 04:13:00,
2013-04-28 22:23:00,68.0,19.0,29.93,South,172,0.0,0.0,15,0.00,,,0.00,,2013-04-29 04:23:00,
2013-04-28 22:33:00,68.0,20.0,29.94,South,172,0.0,0.0,16,0.00,,,0.00,,2013-04-29 04:33:00,
2013-04-28 22:43:00,68.0,20.0,29.94,South,172,0.0,0.0,16,0.00,,,0.00,,2013-04-29 04:43:00,
2013-04-28 22:52:00,67.0,21.0,29.94,South,172,0.0,0.0,17,0.00,,,0.00,,2013-04-29 04:52:00,
2013-04-28 23:02:00,66.0,20.0,29.94,South,172,0.0,0.0,17,0.00,,,0.00,,2013-04-29 05:02:00,
2013-04-28 23:12:00,66.0,20.0,29.94,South,172,0.0,0.0,17,0.00,,,0.00,,2013-04-29 05:12:00,
2013-04-28 23:22:00,65.0,22.0,29.94,SSE,149,0.0,1.0,19,0.00,,,0.00,,2013-04-29 05:22:00,
2013-04-28 23:32:00,64.0,21.0,29.94,SSE,149,0.0,0.0,19,0.00,,,0.00,,2013-04-29 05:32:00,
2013-04-28 23:42:00,64.0,21.0,29.94,SSE,149,0.0,0.0,19,0.00,,,0.00,,2013-04-29 05:42:00,
2013-04-28 23:52:00,63.0,24.0,29.95,SSE,149,0.0,0.0,22,0.00,,,0.00,,2013-04-29 05:52:00,